createdAt,value
2022-10-19T00:01:03.974Z,102557.47
2022-10-19T00:03:32.037Z,102565.38
2022-10-19T00:06:00.097Z,102576.84
2022-10-19T00:08:33.133Z,102577.72
2022-10-19T00:11:02.653Z,102568.91
2022-10-19T00:13:30.361Z,102562.72
2022-10-19T00:15:58.229Z,102568.03
2022-10-19T00:18:28.067Z,102559.25
2022-10-19T00:21:04.594Z,102562.72
2022-10-19T00:23:32.832Z,102571.56
2022-10-19T00:26:01.147Z,102573.34
2022-10-19T00:28:29.490Z,102566.28
2022-10-19T00:31:01.045Z,102556.59
2022-10-19T00:33:30.472Z,102564.47
2022-10-19T00:35:58.395Z,102558.34
2022-10-19T00:38:26.506Z,102554.78
2022-10-19T00:40:54.385Z,102554.78
2022-10-19T00:43:23.911Z,102560.06
2022-10-19T00:45:52.900Z,102559.19
2022-10-19T00:48:25.862Z,102552.06
2022-10-19T00:50:57.920Z,102548.53
2022-10-19T00:53:28.273Z,102551.25
2022-10-19T00:55:58.393Z,102548.63
2022-10-19T00:58:26.233Z,102545.97
2022-10-19T01:00:54.274Z,102548.59
2022-10-19T01:03:22.593Z,102545.06
2022-10-19T01:05:50.829Z,102552.06
2022-10-19T01:08:20.184Z,102546.78
2022-10-19T01:11:01.876Z,102550.31
2022-10-19T01:13:40.954Z,102540.59
2022-10-19T01:16:16.985Z,102537.00
2022-10-19T01:18:51.768Z,102543.16
2022-10-19T01:21:26.129Z,102530.81
2022-10-19T01:24:30.346Z,102532.56
2022-10-19T01:27:28.866Z,102525.41
2022-10-19T01:30:08.398Z,102520.16
2022-10-19T01:32:46.502Z,102524.56
2022-10-19T01:35:22.812Z,102521.88
2022-10-19T01:37:56.574Z,102523.63
2022-10-19T01:40:31.428Z,102525.34
2022-10-19T01:43:02.663Z,102519.19
2022-10-19T01:45:39.291Z,102526.25
2022-10-19T01:48:12.617Z,102522.72
2022-10-19T01:50:46.871Z,102513.91
2022-10-19T01:53:15.944Z,102513.91
2022-10-19T01:55:46.285Z,102514.78
2022-10-19T01:58:17.618Z,102510.25
2022-10-19T02:00:50.871Z,102502.25
2022-10-19T02:03:20.318Z,102496.16
2022-10-19T02:05:49.370Z,102497.91
2022-10-19T02:08:23.463Z,102504.91
2022-10-19T02:10:51.651Z,102502.25
2022-10-19T02:13:22.212Z,102503.97
2022-10-19T02:15:54.135Z,102502.31
2022-10-19T02:18:28.921Z,102493.44
2022-10-19T02:20:57.443Z,102483.03
2022-10-19T02:23:27.918Z,102485.56
2022-10-19T02:25:58.553Z,102490.00
2022-10-19T02:28:27.598Z,102483.94
2022-10-19T02:30:58.235Z,102466.41
2022-10-19T02:33:26.700Z,102477.03
2022-10-19T02:35:54.584Z,102460.28
2022-10-19T02:38:24.846Z,102467.34
2022-10-19T02:41:00.984Z,102455.91
2022-10-19T02:43:32.537Z,102462.03
2022-10-19T02:46:06.583Z,102466.56
2022-10-19T02:48:36.249Z,102457.78
2022-10-19T02:51:04.069Z,102468.22
2022-10-19T02:53:31.840Z,102470.09
2022-10-19T02:55:59.763Z,102473.56
2022-10-19T02:58:27.588Z,102474.50
2022-10-19T03:00:56.167Z,102473.66
2022-10-19T03:03:25.558Z,102463.16
2022-10-19T03:05:53.405Z,102476.34
2022-10-19T03:08:21.361Z,102475.50
2022-10-19T03:10:49.212Z,102465.00
2022-10-19T03:13:17.091Z,102474.72
2022-10-19T03:15:44.894Z,102476.44
2022-10-19T03:18:12.819Z,102482.59
2022-10-19T03:20:42.060Z,102480.03
2022-10-19T03:23:09.939Z,102485.28
2022-10-19T03:25:37.831Z,102491.41
2022-10-19T03:28:05.693Z,102494.97
2022-10-19T03:30:33.526Z,102499.38
2022-10-19T03:33:01.346Z,102493.22
2022-10-19T03:35:29.239Z,102494.97
2022-10-19T03:37:58.669Z,102506.44
2022-10-19T03:40:26.504Z,102497.59
2022-10-19T03:42:54.216Z,102498.50
2022-10-19T03:45:22.084Z,102494.09
2022-10-19T03:47:50.948Z,102502.94
2022-10-19T03:50:19.025Z,102504.69
2022-10-19T03:52:46.778Z,102508.22
2022-10-19T03:55:16.558Z,102517.88
2022-10-19T03:57:44.618Z,102520.47
2022-10-19T04:00:13.873Z,102516.03
2022-10-19T04:02:42.230Z,102513.44
2022-10-19T04:05:10.481Z,102517.78
2022-10-19T04:07:38.358Z,102513.31
2022-10-19T04:10:07.196Z,102512.44
2022-10-19T04:12:36.381Z,102512.38
2022-10-19T04:15:04.339Z,102508.03
2022-10-19T04:17:32.856Z,102513.16
2022-10-19T04:20:00.926Z,102514.88
2022-10-19T04:22:32.931Z,102506.19
2022-10-19T04:25:00.852Z,102514.00
2022-10-19T04:27:28.812Z,102510.47
2022-10-19T04:29:58.114Z,102509.59
2022-10-19T04:32:25.996Z,102506.19
2022-10-19T04:34:54.035Z,102501.72
2022-10-19T04:37:21.865Z,102504.44
2022-10-19T04:39:49.756Z,102491.41
2022-10-19T04:42:17.594Z,102492.25
2022-10-19T04:44:45.553Z,102493.22
2022-10-19T04:47:14.699Z,102497.56
2022-10-19T04:49:42.562Z,102496.69
2022-10-19T04:52:11.572Z,102487.91
2022-10-19T04:54:39.437Z,102481.81
2022-10-19T04:57:07.361Z,102474.72
2022-10-19T04:59:35.173Z,102474.66
2022-10-19T05:02:03.182Z,102481.69
2022-10-19T05:04:32.493Z,102482.50
2022-10-19T05:07:00.879Z,102486.09
2022-10-19T05:09:28.667Z,102475.53
2022-10-19T05:11:56.687Z,102472.09
2022-10-19T05:14:25.034Z,102466.84
2022-10-19T05:16:53.652Z,102461.59
2022-10-19T05:19:21.569Z,102457.19
2022-10-19T05:21:50.843Z,102451.03
2022-10-19T05:24:18.706Z,102448.41
2022-10-19T05:26:46.821Z,102434.38
2022-10-19T05:29:15.570Z,102443.13
2022-10-19T05:31:43.433Z,102444.91
2022-10-19T05:34:11.240Z,102447.56
2022-10-19T05:36:40.855Z,102430.84
2022-10-19T05:39:14.631Z,102433.47
2022-10-19T05:41:44.556Z,102437.88
2022-10-19T05:44:16.699Z,102433.47
2022-10-19T05:46:45.030Z,102428.22
2022-10-19T05:49:13.603Z,102419.41
2022-10-19T05:51:41.636Z,102410.63
2022-10-19T05:54:11.896Z,102416.78
2022-10-19T05:56:41.193Z,102388.59
2022-10-19T05:59:10.110Z,102400.91
2022-10-19T06:01:38.456Z,102391.25
2022-10-19T06:04:07.358Z,102384.19
2022-10-19T06:06:35.523Z,102391.25
2022-10-19T06:09:04.528Z,102391.25
2022-10-19T06:11:36.094Z,102392.97
2022-10-19T06:14:06.215Z,102389.44
2022-10-19T06:16:34.513Z,102393.84
2022-10-19T06:19:02.455Z,102392.94
2022-10-19T06:21:32.033Z,102392.88
2022-10-19T06:24:02.344Z,102381.44
2022-10-19T06:26:31.189Z,102370.94
2022-10-19T06:29:02.524Z,102386.72
2022-10-19T06:31:32.315Z,102375.28
2022-10-19T06:34:01.371Z,102372.66
2022-10-19T06:36:30.531Z,102377.91
2022-10-19T06:38:59.721Z,102370.88
2022-10-19T06:41:28.856Z,102362.94
2022-10-19T06:43:57.416Z,102369.03
2022-10-19T06:46:28.093Z,102364.56
2022-10-19T06:48:58.185Z,102360.06
2022-10-19T06:51:28.143Z,102352.97
2022-10-19T06:53:57.527Z,102361.75
2022-10-19T06:56:26.088Z,102354.63
2022-10-19T06:58:54.556Z,102351.94
2022-10-19T07:01:23.221Z,102354.53
2022-10-19T07:03:53.653Z,102348.31
2022-10-19T07:06:21.990Z,102345.53
2022-10-19T07:08:50.310Z,102339.28
2022-10-19T07:11:22.357Z,102348.88
2022-10-19T07:13:50.572Z,102332.03
2022-10-19T07:16:20.953Z,102332.97
2022-10-19T07:18:50.711Z,102328.25
2022-10-19T07:21:21.759Z,102330.03
2022-10-19T07:23:49.736Z,102336.28
2022-10-19T07:26:21.224Z,102321.88
2022-10-19T07:28:49.427Z,102326.31
2022-10-19T07:31:23.134Z,102326.13
2022-10-19T07:33:54.725Z,102320.69
2022-10-19T07:36:24.854Z,102324.22
2022-10-19T07:38:53.074Z,102318.88
2022-10-19T07:41:25.439Z,102324.09
2022-10-19T07:43:54.174Z,102316.16
2022-10-19T07:46:24.073Z,102330.91
2022-10-19T07:48:59.261Z,102334.22
2022-10-19T07:51:34.930Z,102340.31
2022-10-19T07:54:08.066Z,102352.59
2022-10-19T07:56:38.520Z,102360.25
2022-10-19T07:59:45.909Z,102370.91
2022-10-19T08:02:17.468Z,102377.88
2022-10-19T08:05:04.294Z,102372.44
2022-10-19T08:07:38.294Z,102373.19
2022-10-19T08:10:06.720Z,102386.13
2022-10-19T08:12:38.000Z,102396.72
2022-10-19T08:15:07.907Z,102405.38
2022-10-19T08:17:37.340Z,102405.81
2022-10-19T08:20:08.164Z,102417.22
2022-10-19T08:22:37.605Z,102431.31
2022-10-19T08:25:06.297Z,102440.41
2022-10-19T08:30:10.814Z,102480.78
2022-10-19T08:32:39.725Z,102509.22
2022-10-19T08:35:10.710Z,102557.97
2022-10-19T08:37:45.313Z,102638.00
2022-10-19T08:40:20.419Z,102796.03
2022-10-19T08:42:56.622Z,103081.66
2022-10-19T08:48:26.825Z,103372.28
2022-10-19T08:51:00.329Z,103340.38
2022-10-19T08:53:44.420Z,103266.66
2022-10-19T08:56:49.909Z,103177.28
2022-10-19T08:59:33.424Z,103156.03
2022-10-19T09:02:17.726Z,103113.41
2022-10-19T09:04:52.399Z,103096.34
2022-10-19T09:07:25.837Z,103061.91
2022-10-19T09:09:59.132Z,103044.72
2022-10-19T09:12:37.851Z,103059.66
2022-10-19T09:15:14.613Z,103032.84
2022-10-19T09:17:42.623Z,103033.06
2022-10-19T09:20:22.867Z,102988.72
2022-10-19T09:23:04.027Z,102994.88
2022-10-19T09:25:36.807Z,103018.69
2022-10-19T09:28:24.301Z,103027.44
2022-10-19T09:30:57.809Z,103022.09
2022-10-19T09:33:38.335Z,103027.53
2022-10-19T09:36:22.456Z,103016.03
2022-10-19T09:38:53.867Z,103037.41
2022-10-19T09:41:25.708Z,103018.13
2022-10-19T09:44:00.804Z,102992.28
2022-10-19T09:46:48.454Z,103013.94
2022-10-19T09:49:16.945Z,103049.25
2022-10-19T09:51:51.879Z,103024.81
2022-10-19T09:54:33.831Z,103034.88
2022-10-19T09:57:04.310Z,102992.41
2022-10-19T09:59:36.591Z,102988.47
2022-10-19T10:02:15.502Z,102984.81
2022-10-19T10:04:49.446Z,102959.94
2022-10-19T10:07:19.173Z,102927.09
2022-10-19T10:09:48.355Z,102892.19
2022-10-19T10:12:24.921Z,102859.56
2022-10-19T10:14:56.126Z,102890.09
2022-10-19T10:17:31.727Z,102869.31
2022-10-19T10:20:23.623Z,102841.31
2022-10-19T10:22:58.004Z,102867.97
2022-10-19T10:25:29.070Z,102862.38
2022-10-19T10:28:01.405Z,102861.94
2022-10-19T10:30:35.196Z,102876.56
2022-10-19T10:33:13.220Z,102872.78
2022-10-19T10:35:53.744Z,102837.50
2022-10-19T10:38:27.611Z,102839.44
2022-10-19T10:40:58.840Z,102834.00
2022-10-19T10:43:32.412Z,102810.59
2022-10-19T10:46:04.614Z,102774.75
2022-10-19T10:48:39.842Z,102704.81
2022-10-19T10:51:20.732Z,102681.38
2022-10-19T10:53:49.087Z,102671.19
2022-10-19T10:56:26.544Z,102692.16
2022-10-19T10:59:04.134Z,102695.59
2022-10-19T11:01:38.980Z,102705.03
2022-10-19T11:04:12.185Z,102695.63
2022-10-19T11:06:44.900Z,102685.66
2022-10-19T11:09:21.229Z,102647.94
2022-10-19T11:11:55.923Z,102611.81
2022-10-19T11:14:31.462Z,102613.84
2022-10-19T11:17:05.105Z,102637.56
2022-10-19T11:19:37.705Z,102591.72
2022-10-19T11:22:17.842Z,102615.31
2022-10-19T11:24:57.871Z,102617.16
2022-10-19T11:27:39.542Z,102593.19
2022-10-19T11:30:14.583Z,102622.19
2022-10-19T11:32:57.225Z,102637.28
2022-10-19T11:35:43.831Z,102613.63
2022-10-19T11:38:30.259Z,102564.13
2022-10-19T11:41:18.195Z,102598.50
2022-10-19T11:44:00.732Z,102502.63
2022-10-19T11:46:42.580Z,102452.03
2022-10-19T11:49:22.971Z,102475.34
2022-10-19T11:52:03.042Z,102515.59
2022-10-19T11:54:53.536Z,102548.69
2022-10-19T11:57:28.158Z,102574.56
2022-10-19T12:00:14.611Z,102529.09
2022-10-19T12:03:17.209Z,102485.44
2022-10-19T12:06:02.270Z,102504.91
2022-10-19T12:08:46.020Z,102536.78
2022-10-19T12:11:28.611Z,102603.94
2022-10-19T12:14:09.729Z,102614.31
2022-10-19T12:16:56.649Z,102608.47
2022-10-19T12:19:31.545Z,102557.38
2022-10-19T12:22:03.008Z,102486.75
2022-10-19T12:24:39.251Z,102412.13
2022-10-19T12:27:13.193Z,102440.44
2022-10-19T12:29:45.269Z,102436.38
2022-10-19T12:32:20.877Z,102488.72
2022-10-19T12:34:57.798Z,102527.53
2022-10-19T12:37:46.562Z,102532.97
2022-10-19T12:40:25.489Z,102529.44
2022-10-19T12:43:01.387Z,102516.97
2022-10-19T12:45:36.436Z,102546.81
2022-10-19T12:48:20.322Z,102567.50
2022-10-19T12:51:13.750Z,102547.16
2022-10-19T12:53:44.520Z,102431.47
2022-10-19T12:56:24.116Z,102320.25
2022-10-19T12:58:56.381Z,102343.56
2022-10-19T13:01:28.195Z,102349.72
2022-10-19T13:04:10.554Z,102410.50
2022-10-19T13:06:44.005Z,102463.53
2022-10-19T13:09:25.605Z,102486.81
2022-10-19T13:12:29.733Z,102489.09
2022-10-19T13:15:00.490Z,102498.03
2022-10-19T13:17:45.643Z,102418.78
2022-10-19T13:20:53.586Z,102356.19
2022-10-19T13:24:22.192Z,102339.69
2022-10-19T13:27:39.478Z,102253.63
2022-10-19T13:30:48.203Z,102227.41
2022-10-19T13:33:52.430Z,102247.97
2022-10-19T13:36:23.244Z,102104.47
2022-10-19T13:39:15.763Z,101297.16
2022-10-19T13:42:13.730Z,101541.19
2022-10-19T13:44:47.563Z,101537.59
2022-10-19T13:47:51.505Z,101582.50
2022-10-19T13:50:33.333Z,101600.03
2022-10-19T13:55:32.549Z,101705.38
2022-10-19T13:57:00.342Z,101573.84
2022-10-19T14:00:09.690Z,101513.06
2022-10-19T14:03:54.674Z,101628.22
2022-10-19T14:06:28.980Z,101649.69
2022-10-19T14:11:12.730Z,101715.25
2022-10-19T14:12:32.440Z,101807.28
2022-10-19T14:15:02.740Z,101809.34
2022-10-19T14:17:38.022Z,101752.75
2022-10-19T14:20:27.232Z,101783.38
2022-10-19T14:22:55.508Z,101761.94
2022-10-19T14:26:13.706Z,101777.53
2022-10-19T14:29:01.036Z,101790.59
2022-10-19T14:31:45.946Z,101797.22
2022-10-19T14:34:16.272Z,101816.72
2022-10-19T14:36:47.918Z,101812.25
2022-10-19T14:39:31.870Z,101795.38
2022-10-19T14:42:05.199Z,101779.31
2022-10-19T14:44:41.153Z,101764.69
2022-10-19T14:47:26.607Z,101765.19
2022-10-19T14:49:54.608Z,101764.56
2022-10-19T14:52:30.097Z,101733.09
2022-10-19T14:54:59.939Z,101700.06
2022-10-19T14:57:33.149Z,101713.13
2022-10-19T15:00:04.107Z,101658.63
2022-10-19T15:02:37.963Z,101595.78
2022-10-19T15:05:07.719Z,101527.13
2022-10-19T15:07:38.888Z,101509.44
2022-10-19T15:10:17.365Z,101434.84
2022-10-19T15:12:45.535Z,101408.38
2022-10-19T15:15:18.883Z,101424.31
2022-10-19T15:17:56.561Z,101447.69
2022-10-19T15:20:28.415Z,101385.03
2022-10-19T15:22:56.780Z,101356.88
2022-10-19T15:25:28.939Z,101327.22
2022-10-19T15:27:57.738Z,101301.84
2022-10-19T15:30:29.972Z,101237.25
2022-10-19T15:33:16.604Z,101196.97
2022-10-19T15:35:45.635Z,101181.16
2022-10-19T15:38:22.885Z,101239.78
2022-10-19T15:40:58.687Z,100949.56
2022-10-19T15:43:50.722Z,100854.53
2022-10-19T15:46:31.577Z,100895.41
2022-10-19T15:49:04.434Z,102366.72
2022-10-19T15:51:54.501Z,102402.25
2022-10-19T15:54:23.866Z,102485.72
2022-10-19T15:56:53.945Z,102545.19
2022-10-19T15:59:23.837Z,102588.84
2022-10-19T16:01:54.946Z,102639.38
2022-10-19T16:04:25.148Z,102635.19
2022-10-19T16:06:53.444Z,102650.25
2022-10-19T16:09:22.703Z,102614.13
2022-10-19T16:11:56.737Z,102610.66
2022-10-19T16:14:26.262Z,102609.13
2022-10-19T16:16:54.236Z,102592.34
2022-10-19T16:19:22.068Z,102609.94
2022-10-19T16:21:51.358Z,102592.25
2022-10-19T16:24:19.428Z,102598.38
2022-10-19T16:26:47.333Z,102595.88
2022-10-19T16:29:15.212Z,102595.84
2022-10-19T16:31:43.055Z,102590.63
2022-10-19T16:34:10.921Z,102577.56
2022-10-19T16:36:39.259Z,102576.69
2022-10-19T16:39:10.238Z,102569.75
2022-10-19T16:44:12.340Z,102560.97
2022-10-19T16:46:40.684Z,102538.19
2022-10-19T16:49:08.650Z,102542.47
2022-10-19T16:51:37.736Z,102537.25
2022-10-19T16:54:11.316Z,102540.75
2022-10-19T16:56:50.886Z,102528.47
2022-10-19T16:59:19.688Z,102521.50
2022-10-19T17:01:47.744Z,102517.16
2022-10-19T17:04:17.352Z,102507.53
2022-10-19T17:06:45.814Z,102524.19
2022-10-19T17:09:41.290Z,102519.81
2022-10-19T17:12:06.456Z,102519.81
2022-10-19T17:14:34.749Z,102520.72
2022-10-19T17:17:02.651Z,102509.38
2022-10-19T17:19:30.733Z,102504.13
2022-10-19T17:21:59.156Z,102488.19
2022-10-19T17:24:28.787Z,102495.28
2022-10-19T17:26:56.735Z,102485.59
2022-10-19T17:29:26.213Z,102468.94
2022-10-19T17:31:54.335Z,102474.22
2022-10-19T17:34:22.170Z,102468.84
2022-10-19T17:36:50.128Z,102461.81
2022-10-19T17:39:25.597Z,102463.66
2022-10-19T17:42:01.821Z,102459.28
2022-10-19T17:44:31.493Z,102459.38
2022-10-19T17:47:00.943Z,102443.53
2022-10-19T17:49:32.411Z,102455.75
2022-10-19T17:52:03.355Z,102466.31
2022-10-19T17:54:39.522Z,102464.56
2022-10-19T17:57:22.737Z,102463.78
2022-10-19T17:59:53.001Z,102453.25
2022-10-19T18:02:21.336Z,102459.44
2022-10-19T18:04:49.185Z,102453.38
2022-10-19T18:07:17.432Z,102458.69
2022-10-19T18:09:45.426Z,102455.22
2022-10-19T18:12:14.111Z,102444.59
2022-10-19T18:14:44.693Z,102421.69
2022-10-19T18:17:12.873Z,102405.91
2022-10-19T18:19:40.905Z,102399.75
2022-10-19T18:22:09.277Z,102383.13
2022-10-19T18:24:37.282Z,102383.97
2022-10-19T18:27:07.480Z,102351.47
2022-10-19T18:29:35.646Z,102345.28
2022-10-19T18:34:34.489Z,102324.09
2022-10-19T18:37:02.613Z,102323.09
2022-10-19T18:39:30.646Z,102326.53
2022-10-19T18:42:01.899Z,102319.59
2022-10-19T18:44:33.541Z,102324.88
2022-10-19T18:47:01.786Z,102323.22
2022-10-19T18:49:32.254Z,102303.78
2022-10-19T18:52:00.419Z,102295.88
2022-10-19T18:54:29.102Z,102275.72
2022-10-19T18:56:57.595Z,102266.91
2022-10-19T19:01:59.235Z,102255.41
2022-10-19T19:04:27.850Z,102258.97
2022-10-19T19:06:57.243Z,102245.66
2022-10-19T19:09:25.319Z,102238.63
2022-10-19T19:11:54.339Z,102251.03
2022-10-19T19:14:22.243Z,102256.31
2022-10-19T19:16:51.425Z,102258.00
2022-10-19T19:19:20.300Z,102245.72
2022-10-19T19:21:48.982Z,102243.13
2022-10-19T19:24:22.142Z,102242.31
2022-10-19T19:26:54.827Z,102232.78
2022-10-19T19:29:23.380Z,102235.34
2022-10-19T19:31:51.810Z,102233.59
2022-10-19T19:34:20.166Z,102224.72
2022-10-19T19:36:49.628Z,102223.97
2022-10-19T19:39:21.380Z,102219.63
2022-10-19T19:41:50.423Z,102210.91
2022-10-19T19:44:18.720Z,102212.72
2022-10-19T19:46:46.611Z,102211.75
2022-10-19T19:49:14.940Z,102200.28
2022-10-19T19:51:43.683Z,102201.25
2022-10-19T19:54:12.262Z,102203.16
2022-10-19T19:56:42.499Z,102197.94
2022-10-19T19:59:12.982Z,102193.59
2022-10-19T20:01:41.242Z,102178.72
2022-10-19T20:04:09.812Z,102169.03
2022-10-19T20:06:39.741Z,102147.97
2022-10-19T20:09:09.281Z,102134.81
2022-10-19T20:11:42.097Z,102123.44
2022-10-19T20:14:12.662Z,102100.59
2022-10-19T20:16:41.072Z,102110.22
2022-10-19T20:19:10.428Z,102104.13
2022-10-19T20:21:39.029Z,102072.56
2022-10-19T20:24:07.596Z,102102.38
2022-10-19T20:26:35.909Z,102090.94
2022-10-19T20:29:06.028Z,102084.81
2022-10-19T20:31:40.594Z,102078.53
2022-10-19T20:34:10.704Z,102066.22
2022-10-19T20:36:39.017Z,102056.47
2022-10-19T20:39:07.150Z,102044.97
2022-10-19T20:41:35.102Z,102025.66
2022-10-19T20:44:04.202Z,102030.91
2022-10-19T20:46:32.893Z,102008.97
2022-10-19T20:49:02.989Z,102021.09
2022-10-19T20:51:36.751Z,102013.22
2022-10-19T20:54:06.883Z,102009.72
2022-10-19T20:56:37.977Z,102013.16
2022-10-19T20:59:08.024Z,102012.28
2022-10-19T21:01:38.610Z,102014.84
2022-10-19T21:04:11.461Z,101994.69
2022-10-19T21:06:41.236Z,102014.84
2022-10-19T21:09:09.571Z,101999.88
2022-10-19T21:11:39.628Z,102006.97
2022-10-19T21:14:09.144Z,102010.53
2022-10-19T21:16:37.859Z,102013.19
2022-10-19T21:19:08.738Z,102004.44
2022-10-19T21:21:38.537Z,102022.84
2022-10-19T21:24:09.300Z,102031.56
2022-10-19T21:26:38.082Z,102035.06
2022-10-19T21:29:09.448Z,102042.94
2022-10-19T21:31:42.131Z,102044.69
2022-10-19T21:34:15.960Z,102045.72
2022-10-19T21:36:44.423Z,102047.28
2022-10-19T21:39:12.562Z,102050.75
2022-10-19T21:41:40.618Z,102045.38
2022-10-19T21:44:10.477Z,102042.72
2022-10-19T21:46:39.457Z,102052.41
2022-10-19T21:49:07.387Z,102049.84
2022-10-19T21:51:38.943Z,102036.78
2022-10-19T21:56:39.959Z,102059.16
2022-10-19T21:59:12.128Z,102055.78
2022-10-19T22:01:41.456Z,102066.16
2022-10-19T22:04:12.959Z,102068.81
2022-10-19T22:06:42.822Z,102078.66
2022-10-19T22:09:13.447Z,102073.38
2022-10-19T22:11:41.410Z,102084.63
2022-10-19T22:14:09.387Z,102077.66
2022-10-19T22:16:40.253Z,102076.84
2022-10-19T22:19:08.664Z,102079.53
2022-10-19T22:24:18.210Z,102062.69
2022-10-19T22:26:50.691Z,102076.75
2022-10-19T22:29:19.072Z,102069.81
2022-10-19T22:31:47.020Z,102063.66
2022-10-19T22:34:16.986Z,102068.13
2022-10-19T22:36:45.674Z,102066.38
2022-10-19T22:39:19.460Z,102057.56
2022-10-19T22:42:42.723Z,102047.84
2022-10-19T22:45:10.738Z,102046.13
2022-10-19T22:47:38.748Z,102040.78
2022-10-19T22:50:09.522Z,102037.38
2022-10-19T22:52:37.673Z,102026.94
2022-10-19T22:55:07.699Z,102022.53
2022-10-19T22:57:35.814Z,102026.06
2022-10-19T23:00:04.573Z,102009.56
2022-10-19T23:02:32.785Z,102007.75
2022-10-19T23:05:00.738Z,102003.38
2022-10-19T23:07:28.675Z,102007.84
2022-10-19T23:09:58.790Z,101989.44
2022-10-19T23:12:30.133Z,101992.88
2022-10-19T23:14:57.911Z,102002.63
2022-10-19T23:17:25.770Z,101985.25
2022-10-19T23:19:53.715Z,102001.94
2022-10-19T23:22:21.520Z,101984.47
2022-10-19T23:24:49.363Z,101968.66
2022-10-19T23:27:17.260Z,101961.69
2022-10-19T23:29:46.593Z,101964.34
2022-10-19T23:32:14.536Z,101958.19
2022-10-19T23:34:45.916Z,101946.75
2022-10-19T23:37:16.190Z,101933.66
2022-10-19T23:39:43.940Z,101933.69
2022-10-19T23:42:11.781Z,101910.97
2022-10-19T23:44:39.684Z,101906.56
2022-10-19T23:47:09.010Z,101889.06
2022-10-19T23:49:36.928Z,101914.53
2022-10-19T23:52:04.772Z,101907.50
2022-10-19T23:54:32.590Z,101883.75
2022-10-19T23:57:00.662Z,101885.44
2022-10-19T23:59:28.816Z,101875.81
